Time;durP1;ratioP1;P1;durP2;ratioP2;P2;SDS_P1;SDS_P2;PMS_P1;PMS_P2;Temp;Humidity;BMP_temperature;BMP_pressure;BME280_temperature;BME280_humidity;BME280_pressure;Samples;Min_cycle;Max_cycle;Signal;HPM_P1;HPM_P2
2023/03/22 00:00:01;;;;;;;6.03;5.43;;;9.90;96.70;;;;;;926051;151;27412;-74
2023/03/22 00:02:29;;;;;;;6.03;5.43;;;9.80;96.80;;;;;;925585;151;27406;-74
2023/03/22 00:04:54;;;;;;;7.07;5.60;;;9.80;96.90;;;;;;924988;151;27448;-75
2023/03/22 00:07:21;;;;;;;5.83;5.30;;;9.80;97.10;;;;;;925399;151;27379;-74
2023/03/22 00:09:47;;;;;;;6.67;5.23;;;9.70;97.20;;;;;;924465;151;27334;-75
2023/03/22 00:12:14;;;;;;;7.67;5.20;;;9.70;97.20;;;;;;926419;151;27394;-75
2023/03/22 00:14:41;;;;;;;7.10;5.80;;;9.70;97.50;;;;;;927294;151;27782;-74
2023/03/22 00:17:07;;;;;;;7.17;5.53;;;9.70;97.60;;;;;;926113;151;27457;-74
2023/03/22 00:19:34;;;;;;;5.80;5.30;;;9.70;97.80;;;;;;926338;151;27305;-74
2023/03/22 00:22:02;;;;;;;5.90;5.33;;;9.70;97.90;;;;;;926386;151;27529;-75
2023/03/22 00:24:27;;;;;;;6.90;5.23;;;9.70;98.00;;;;;;926597;151;27414;-75
2023/03/22 00:26:53;;;;;;;6.30;5.17;;;9.70;98.00;;;;;;928828;151;27367;-74
2023/03/22 00:29:21;;;;;;;6.67;5.30;;;9.70;98.20;;;;;;924803;151;27393;-75
2023/03/22 00:31:48;;;;;;;7.73;5.30;;;9.70;98.20;;;;;;925215;151;27317;-74
2023/03/22 00:34:13;;;;;;;6.30;5.70;;;9.70;98.40;;;;;;925978;151;27418;-74
2023/03/22 00:36:41;;;;;;;5.80;5.20;;;9.70;98.60;;;;;;924953;151;27470;-75
2023/03/22 00:39:06;;;;;;;6.17;5.43;;;9.70;98.80;;;;;;926088;151;27356;-74
2023/03/22 00:41:33;;;;;;;6.47;5.67;;;9.70;99.00;;;;;;925423;151;27389;-74
2023/03/22 00:44:00;;;;;;;7.63;5.30;;;9.70;99.20;;;;;;926585;151;27449;-74
2023/03/22 00:46:26;;;;;;;5.87;5.27;;;9.80;99.30;;;;;;926245;151;27488;-74
2023/03/22 00:48:53;;;;;;;5.70;5.20;;;9.80;99.30;;;;;;924845;151;27364;-74
2023/03/22 00:51:19;;;;;;;6.27;5.50;;;9.90;99.40;;;;;;927474;151;27515;-74
2023/03/22 00:53:49;;;;;;;5.90;5.30;;;10.00;99.50;;;;;;926248;151;27354;-74
2023/03/22 00:56:15;;;;;;;5.67;4.97;;;10.00;99.50;;;;;;925270;151;27398;-74
2023/03/22 00:58:42;;;;;;;5.50;5.00;;;10.00;99.40;;;;;;927245;151;27386;-75
2023/03/22 01:01:12;;;;;;;5.13;4.63;;;10.10;99.40;;;;;;927134;151;27379;-74
2023/03/22 01:03:35;;;;;;;5.80;5.20;;;10.10;99.30;;;;;;925544;151;27347;-74
2023/03/22 01:06:02;;;;;;;6.83;5.43;;;10.20;99.40;;;;;;927318;151;27455;-74
2023/03/22 01:08:31;;;;;;;5.57;4.97;;;10.20;99.30;;;;;;925666;151;27423;-74
2023/03/22 01:10:55;;;;;;;5.57;4.90;;;10.30;99.30;;;;;;926947;151;27387;-74
2023/03/22 01:13:21;;;;;;;7.00;5.57;;;10.30;99.20;;;;;;926324;151;27342;-74
2023/03/22 01:15:48;;;;;;;5.97;5.37;;;10.30;99.20;;;;;;927329;151;27415;-74
2023/03/22 01:18:14;;;;;;;5.43;4.93;;;10.40;99.20;;;;;;925247;151;27475;-74
2023/03/22 01:20:41;;;;;;;5.43;4.90;;;10.40;99.20;;;;;;924974;151;27362;-74
2023/03/22 01:23:08;;;;;;;5.10;4.60;;;10.40;99.20;;;;;;928348;151;27451;-74
2023/03/22 01:25:34;;;;;;;7.10;5.47;;;10.40;99.20;;;;;;926622;151;27442;-75
2023/03/22 01:28:01;;;;;;;5.93;5.33;;;10.50;99.30;;;;;;926597;151;27376;-74
2023/03/22 01:30:27;;;;;;;5.50;5.00;;;10.50;99.30;;;;;;927951;151;27462;-74
2023/03/22 01:32:54;;;;;;;5.73;5.20;;;10.50;99.30;;;;;;923696;151;27393;-74
2023/03/22 01:35:20;;;;;;;5.00;4.60;;;10.60;99.30;;;;;;925096;151;27464;-74
2023/03/22 01:37:47;;;;;;;5.40;4.87;;;10.60;99.20;;;;;;925264;151;27486;-75
2023/03/22 01:40:14;;;;;;;5.30;4.80;;;10.60;99.30;;;;;;925435;151;27348;-74
2023/03/22 01:42:40;;;;;;;5.73;5.13;;;10.70;99.10;;;;;;926219;151;27360;-74
2023/03/22 01:45:13;;;;;;;5.83;5.33;;;10.70;99.00;;;;;;925908;151;27381;-74
2023/03/22 01:47:39;;;;;;;9.53;5.27;;;10.70;98.90;;;;;;926391;151;27410;-74
2023/03/22 01:50:06;;;;;;;5.20;4.70;;;10.70;98.70;;;;;;926459;151;27499;-74
2023/03/22 01:52:32;;;;;;;5.60;5.10;;;10.70;98.60;;;;;;926936;151;27315;-74
2023/03/22 01:54:59;;;;;;;8.07;5.20;;;10.70;98.50;;;;;;925170;151;27295;-74
2023/03/22 01:57:26;;;;;;;5.90;4.90;;;10.70;98.50;;;;;;925559;151;27371;-74
2023/03/22 01:59:52;;;;;;;5.33;4.70;;;10.60;98.40;;;;;;925843;151;27403;-74
2023/03/22 02:02:19;;;;;;;6.37;5.20;;;10.70;98.40;;;;;;924518;151;27307;-74
2023/03/22 02:04:49;;;;;;;5.27;4.77;;;10.60;98.40;;;;;;927122;151;27347;-75
2023/03/22 02:07:14;;;;;;;5.47;4.80;;;10.60;98.40;;;;;;925592;151;27432;-74
2023/03/22 02:09:41;;;;;;;5.43;4.93;;;10.60;98.40;;;;;;924178;151;27532;-74
2023/03/22 02:12:05;;;;;;;5.23;4.73;;;10.60;98.50;;;;;;925392;151;27734;-74
2023/03/22 02:14:44;;;;;;;5.20;4.70;;;10.60;98.60;;;;;;925688;151;27385;-74
2023/03/22 02:17:28;;;;;;;5.73;4.60;;;10.50;98.60;;;;;;909677;151;27447;-75
2023/03/22 02:20:31;;;;;;;5.70;4.63;;;10.50;98.60;;;;;;924619;151;27507;-75
2023/03/22 02:23:07;;;;;;;5.07;4.60;;;10.50;98.60;;;;;;926080;151;27418;-74
2023/03/22 02:26:05;;;;;;;4.93;4.43;;;10.50;98.70;;;;;;926379;151;27901;-75
2023/03/22 02:28:40;;;;;;;5.10;4.47;;;10.50;98.90;;;;;;927604;151;27431;-74
2023/03/22 02:31:28;;;;;;;4.90;4.40;;;10.50;98.80;;;;;;922820;151;27487;-74
2023/03/22 02:34:16;;;;;;;5.40;4.93;;;10.50;99.20;;;;;;926762;151;27448;-74
2023/03/22 02:36:53;;;;;;;6.27;4.67;;;10.50;99.00;;;;;;926586;151;27366;-74
2023/03/22 02:39:31;;;;;;;5.50;4.10;;;10.50;99.00;;;;;;924878;151;27355;-74
2023/03/22 02:42:07;;;;;;;7.67;5.00;;;10.50;99.10;;;;;;926675;151;27324;-74
2023/03/22 02:44:36;;;;;;;5.23;4.63;;;10.50;99.10;;;;;;927866;150;27428;-74
2023/03/22 02:47:08;;;;;;;6.10;4.80;;;10.50;99.10;;;;;;925075;151;27347;-74
2023/03/22 02:49:37;;;;;;;6.80;4.63;;;10.60;99.20;;;;;;925533;151;27352;-74
2023/03/22 02:52:09;;;;;;;4.77;4.27;;;10.60;99.20;;;;;;925588;151;27406;-74
2023/03/22 02:54:48;;;;;;;5.13;4.63;;;10.60;99.20;;;;;;911246;151;27445;-74
2023/03/22 02:57:15;;;;;;;5.17;4.70;;;10.60;99.10;;;;;;924472;151;27315;-74
2023/03/22 02:59:41;;;;;;;5.17;4.77;;;10.60;99.00;;;;;;923329;151;27350;-74
2023/03/22 03:02:08;;;;;;;5.30;4.80;;;10.60;99.00;;;;;;923571;151;27415;-74
2023/03/22 03:04:35;;;;;;;5.33;4.83;;;10.60;99.10;;;;;;925785;151;27307;-74
2023/03/22 03:07:02;;;;;;;5.37;4.87;;;10.60;99.10;;;;;;923880;151;27367;-74
2023/03/22 03:09:28;;;;;;;5.70;5.20;;;10.60;99.20;;;;;;924038;151;27423;-74
2023/03/22 03:11:54;;;;;;;5.23;4.73;;;10.60;99.20;;;;;;921819;151;27523;-74
2023/03/22 03:14:21;;;;;;;5.00;4.60;;;10.70;99.60;;;;;;926702;151;27415;-74
2023/03/22 03:16:48;;;;;;;5.53;5.03;;;10.70;99.40;;;;;;924701;151;27447;-74
2023/03/22 03:19:19;;;;;;;5.10;4.60;;;10.70;99.50;;;;;;928062;151;27347;-74
2023/03/22 03:21:59;;;;;;;5.57;4.73;;;10.70;99.50;;;;;;922530;151;27394;-74
2023/03/22 03:24:38;;;;;;;5.60;4.47;;;10.70;99.40;;;;;;925169;151;27411;-74
2023/03/22 03:27:10;;;;;;;5.90;4.50;;;10.70;99.40;;;;;;926904;151;27448;-75
2023/03/22 03:29:49;;;;;;;8.17;4.60;;;10.80;99.40;;;;;;923937;151;27479;-74
2023/03/22 03:32:28;;;;;;;5.13;4.63;;;10.80;99.40;;;;;;926274;151;27479;-74
2023/03/22 03:35:21;;;;;;;4.30;3.83;;;10.80;99.30;;;;;;922195;151;27397;-78
2023/03/22 03:37:46;;;;;;;4.43;4.03;;;10.80;99.20;;;;;;923054;151;27382;-78
2023/03/22 03:40:11;;;;;;;4.87;4.40;;;10.80;99.10;;;;;;924768;151;27439;-74
2023/03/22 03:42:38;;;;;;;4.43;4.03;;;10.90;99.20;;;;;;924347;151;27371;-74
2023/03/22 03:45:05;;;;;;;4.77;4.10;;;10.80;99.30;;;;;;926415;151;27415;-74
2023/03/22 03:47:31;;;;;;;4.80;4.40;;;10.90;99.30;;;;;;927865;151;27482;-74
2023/03/22 03:49:58;;;;;;;5.40;4.37;;;10.90;99.30;;;;;;923537;151;27473;-74
2023/03/22 03:52:25;;;;;;;4.67;4.27;;;10.90;99.30;;;;;;924071;151;27328;-74
2023/03/22 03:54:51;;;;;;;4.83;4.37;;;10.90;99.30;;;;;;925779;151;27354;-74
2023/03/22 03:57:17;;;;;;;6.10;4.57;;;10.90;99.20;;;;;;924302;151;27383;-74
2023/03/22 03:59:44;;;;;;;4.10;3.60;;;10.90;99.30;;;;;;925196;151;27492;-74
2023/03/22 04:02:11;;;;;;;4.90;4.30;;;11.00;99.30;;;;;;925132;151;27349;-74
2023/03/22 04:04:37;;;;;;;4.10;3.77;;;10.90;99.20;;;;;;926562;151;27359;-74
2023/03/22 04:07:04;;;;;;;5.57;4.37;;;10.90;99.20;;;;;;927613;151;27338;-74
2023/03/22 04:09:30;;;;;;;5.13;4.10;;;10.90;99.20;;;;;;926465;151;27429;-74
2023/03/22 04:11:57;;;;;;;4.43;4.03;;;11.00;99.20;;;;;;924635;151;27531;-74
2023/03/22 04:14:24;;;;;;;6.17;4.07;;;10.90;99.20;;;;;;928269;151;27326;-74
2023/03/22 04:16:50;;;;;;;4.60;4.20;;;10.90;99.10;;;;;;926006;151;27330;-74
2023/03/22 04:19:17;;;;;;;4.57;4.13;;;10.90;99.10;;;;;;925279;151;27440;-74
2023/03/22 04:21:44;;;;;;;4.93;4.07;;;10.90;99.20;;;;;;928413;151;27400;-74
2023/03/22 04:24:10;;;;;;;4.13;3.73;;;10.90;99.10;;;;;;925163;151;27338;-74
2023/03/22 04:26:37;;;;;;;4.20;3.90;;;10.90;99.20;;;;;;925111;151;27318;-74
2023/03/22 04:29:03;;;;;;;5.60;4.63;;;10.90;99.20;;;;;;926864;151;27379;-74
2023/03/22 04:31:30;;;;;;;4.50;4.10;;;10.90;99.20;;;;;;927243;151;27482;-74
2023/03/22 04:33:56;;;;;;;4.60;4.20;;;10.90;99.40;;;;;;927325;151;27383;-74
2023/03/22 04:36:23;;;;;;;4.10;3.73;;;10.90;99.40;;;;;;925176;151;27287;-74
2023/03/22 04:38:50;;;;;;;4.07;3.73;;;10.90;99.40;;;;;;926536;151;27348;-74
2023/03/22 04:41:16;;;;;;;4.90;3.90;;;10.90;99.30;;;;;;924387;151;27392;-74
2023/03/22 04:43:45;;;;;;;4.00;3.60;;;10.90;99.30;;;;;;926742;151;27489;-74
2023/03/22 04:46:11;;;;;;;4.67;3.43;;;10.90;99.20;;;;;;926479;151;27495;-74
2023/03/22 04:48:36;;;;;;;5.30;4.00;;;10.90;99.20;;;;;;922172;151;27283;-74
2023/03/22 04:51:03;;;;;;;5.43;4.17;;;10.90;99.10;;;;;;923541;151;27369;-74
2023/03/22 04:53:29;;;;;;;4.57;4.03;;;10.80;99.10;;;;;;922777;151;27411;-74
2023/03/22 04:55:56;;;;;;;6.10;3.83;;;10.80;99.10;;;;;;922058;151;27492;-74
2023/03/22 04:58:25;;;;;;;4.10;3.70;;;10.80;99.10;;;;;;924556;151;27367;-74
2023/03/22 05:00:52;;;;;;;4.27;3.87;;;10.70;99.20;;;;;;922878;151;27478;-74
2023/03/22 05:03:21;;;;;;;4.97;3.77;;;10.80;99.30;;;;;;922514;151;27339;-74
2023/03/22 05:05:54;;;;;;;4.63;4.20;;;10.70;99.40;;;;;;923257;151;27412;-74
2023/03/22 05:08:20;;;;;;;4.40;4.00;;;10.70;99.40;;;;;;923341;151;27519;-74
2023/03/22 05:10:47;;;;;;;4.33;3.93;;;10.70;99.50;;;;;;924465;151;27815;-74
2023/03/22 05:13:13;;;;;;;4.13;3.70;;;10.70;99.60;;;;;;924053;151;27535;-74
2023/03/22 05:15:40;;;;;;;4.30;3.90;;;10.70;99.60;;;;;;923926;151;27386;-74
2023/03/22 05:18:07;;;;;;;4.70;4.30;;;10.60;99.70;;;;;;921368;151;27737;-74
2023/03/22 05:20:33;;;;;;;4.80;4.33;;;10.60;99.70;;;;;;921783;151;27359;-74
2023/03/22 05:23:01;;;;;;;6.13;3.80;;;10.60;99.70;;;;;;923995;151;27465;-74
2023/03/22 05:25:26;;;;;;;4.30;3.77;;;10.60;99.30;;;;;;922801;151;27394;-74
2023/03/22 05:27:53;;;;;;;4.60;4.20;;;10.60;99.60;;;;;;923287;151;27500;-74
2023/03/22 05:30:20;;;;;;;4.50;4.10;;;10.60;99.50;;;;;;923815;151;27437;-74
2023/03/22 05:32:48;;;;;;;4.60;4.20;;;10.50;99.50;;;;;;922428;151;27402;-74
2023/03/22 05:35:13;;;;;;;4.23;3.83;;;10.50;99.50;;;;;;923844;151;27403;-74
2023/03/22 05:37:40;;;;;;;3.90;3.60;;;10.50;99.60;;;;;;925884;151;27393;-74
2023/03/22 05:40:08;;;;;;;4.90;3.97;;;10.40;99.70;;;;;;922887;151;27367;-74
2023/03/22 05:42:33;;;;;;;4.13;3.70;;;10.40;99.90;;;;;;923413;151;27408;-74
2023/03/22 05:44:59;;;;;;;3.77;3.43;;;10.40;99.90;;;;;;923984;151;27483;-74
2023/03/22 05:47:26;;;;;;;4.37;3.97;;;10.40;99.90;;;;;;923921;151;27420;-74
2023/03/22 05:49:52;;;;;;;4.00;3.70;;;10.30;99.90;;;;;;926791;151;27483;-74
2023/03/22 05:52:19;;;;;;;4.10;3.70;;;10.30;99.90;;;;;;924377;151;27777;-74
2023/03/22 05:54:46;;;;;;;5.70;4.20;;;10.40;99.90;;;;;;926068;151;27676;-74
2023/03/22 05:57:12;;;;;;;3.60;3.30;;;10.40;99.90;;;;;;927110;151;27343;-76
2023/03/22 05:59:39;;;;;;;3.80;3.53;;;10.40;99.90;;;;;;926093;151;27389;-77
2023/03/22 06:02:05;;;;;;;4.43;4.03;;;10.40;99.90;;;;;;923928;151;27299;-77
2023/03/22 06:04:32;;;;;;;5.17;4.77;;;10.50;99.90;;;;;;925728;151;27350;-77
2023/03/22 06:06:59;;;;;;;4.57;3.73;;;10.50;99.90;;;;;;928126;151;27370;-77
2023/03/22 06:09:25;;;;;;;5.57;3.90;;;10.60;99.90;;;;;;925662;151;27463;-77
2023/03/22 06:11:52;;;;;;;4.23;3.83;;;10.60;99.90;;;;;;928148;151;27403;-77
2023/03/22 06:14:18;;;;;;;4.07;3.67;;;10.80;99.90;;;;;;928094;151;27338;-77
2023/03/22 06:16:46;;;;;;;3.90;3.60;;;10.80;99.90;;;;;;926859;151;27345;-76
2023/03/22 06:19:11;;;;;;;4.10;3.70;;;10.90;99.90;;;;;;922937;151;27411;-77
2023/03/22 06:21:38;;;;;;;4.17;3.77;;;11.10;99.90;;;;;;927092;151;27378;-77
2023/03/22 06:24:05;;;;;;;4.93;4.13;;;11.20;99.90;;;;;;926953;151;27436;-77
2023/03/22 06:26:31;;;;;;;5.17;3.97;;;11.40;99.90;;;;;;925481;151;27346;-77
2023/03/22 06:28:58;;;;;;;5.93;3.90;;;11.50;99.90;;;;;;926445;151;27376;-77
2023/03/22 06:31:24;;;;;;;4.30;3.67;;;11.80;99.90;;;;;;927798;151;27402;-77
2023/03/22 06:33:51;;;;;;;4.63;3.70;;;12.10;99.90;;;;;;927437;151;27366;-77
2023/03/22 06:36:18;;;;;;;5.17;3.77;;;12.50;99.90;;;;;;926931;151;27336;-77
2023/03/22 06:38:44;;;;;;;5.37;3.30;;;12.80;99.90;;;;;;925179;151;27319;-77
2023/03/22 06:41:11;;;;;;;3.47;3.17;;;13.20;99.90;;;;;;925245;151;27722;-78
2023/03/22 06:43:37;;;;;;;3.60;3.17;;;13.60;99.90;;;;;;926447;151;27489;-81
2023/03/22 06:46:04;;;;;;;3.30;3.00;;;14.10;99.90;;;;;;923748;151;27364;-81
2023/03/22 06:48:31;;;;;;;3.25;2.95;;;14.60;99.90;;;;;;926136;151;27383;-81
2023/03/22 06:50:58;;;;;;;3.58;3.02;;;15.20;99.90;;;;;;927090;151;27395;-81
2023/03/22 06:53:24;;;;;;;3.00;2.70;;;15.90;99.90;;;;;;926544;151;27381;-81
2023/03/22 06:55:51;;;;;;;3.02;2.60;;;16.50;99.90;;;;;;923395;151;27433;-81
2023/03/22 06:58:17;;;;;;;3.17;2.72;;;17.30;99.90;;;;;;925746;151;27290;-81
2023/03/22 07:00:43;;;;;;;3.00;2.70;;;18.00;99.90;;;;;;926588;151;27453;-81
2023/03/22 07:03:10;;;;;;;3.72;2.60;;;18.70;99.90;;;;;;927336;151;27508;-82
2023/03/22 07:05:37;;;;;;;4.20;3.00;;;19.40;97.50;;;;;;927427;151;27480;-82
2023/03/22 07:08:03;;;;;;;3.92;2.77;;;20.00;95.10;;;;;;925529;151;27365;-82
2023/03/22 07:10:30;;;;;;;3.10;2.52;;;20.60;93.10;;;;;;927248;151;27363;-82
2023/03/22 07:12:57;;;;;;;2.87;2.67;;;21.10;91.20;;;;;;927264;151;27386;-82
2023/03/22 07:15:23;;;;;;;3.27;2.98;;;21.60;88.80;;;;;;924484;153;27363;-81
2023/03/22 07:17:50;;;;;;;2.98;2.65;;;22.00;86.10;;;;;;910251;153;27465;-81
2023/03/22 07:20:16;;;;;;;3.05;2.45;;;22.50;83.10;;;;;;912705;153;27422;-81
2023/03/22 07:22:43;;;;;;;2.95;2.20;;;22.90;81.40;;;;;;907507;153;27374;-81
2023/03/22 07:25:09;;;;;;;2.55;2.35;;;23.30;79.80;;;;;;926312;151;27416;-81
2023/03/22 07:27:36;;;;;;;2.75;2.55;;;23.70;77.70;;;;;;913989;153;27499;-81
2023/03/22 07:30:05;;;;;;;3.05;2.27;;;24.20;76.10;;;;;;910971;153;27403;-81
2023/03/22 07:32:32;;;;;;;2.60;2.15;;;24.50;75.00;;;;;;910534;153;27375;-81
2023/03/22 07:34:58;;;;;;;2.20;1.95;;;24.80;71.80;;;;;;927324;151;27395;-81
2023/03/22 07:37:25;;;;;;;2.80;2.50;;;24.90;68.90;;;;;;925211;151;27450;-81
2023/03/22 07:39:52;;;;;;;3.00;2.37;;;24.90;66.80;;;;;;909766;153;27847;-81
2023/03/22 07:42:18;;;;;;;2.65;2.45;;;24.60;65.10;;;;;;925256;151;27296;-81
2023/03/22 07:44:46;;;;;;;3.05;2.80;;;24.30;63.60;;;;;;930980;150;27492;-81
2023/03/22 07:47:11;;;;;;;2.55;2.33;;;23.90;63.00;;;;;;925414;151;27434;-81
2023/03/22 07:49:38;;;;;;;2.25;2.15;;;23.50;63.20;;;;;;904246;154;27511;-81
2023/03/22 07:52:05;;;;;;;2.70;2.22;;;23.10;62.10;;;;;;940226;148;27398;-81
2023/03/22 07:54:31;;;;;;;2.00;1.90;;;22.70;63.30;;;;;;925598;151;27408;-81
2023/03/22 07:56:58;;;;;;;2.60;1.75;;;22.40;64.20;;;;;;922960;151;27522;-80
2023/03/22 07:59:24;;;;;;;2.10;1.90;;;22.10;64.50;;;;;;923340;151;27330;-80
2023/03/22 08:01:51;;;;;;;3.45;2.10;;;22.00;65.90;;;;;;924856;151;27516;-79
2023/03/22 08:04:19;;;;;;;2.42;1.90;;;21.90;66.70;;;;;;939562;148;27353;-81
2023/03/22 08:06:45;;;;;;;2.33;1.60;;;21.80;65.70;;;;;;903980;154;27494;-80
2023/03/22 08:09:11;;;;;;;3.30;2.25;;;21.70;66.00;;;;;;903687;154;27475;-80
2023/03/22 08:11:37;;;;;;;2.52;1.62;;;21.60;65.60;;;;;;940130;148;27339;-81
2023/03/22 08:14:04;;;;;;;2.55;1.75;;;21.50;65.60;;;;;;940689;148;27389;-80
2023/03/22 08:16:31;;;;;;;3.65;1.95;;;21.30;65.60;;;;;;937523;148;27483;-81
2023/03/22 08:18:57;;;;;;;1.98;1.70;;;21.20;65.60;;;;;;924771;151;27492;-80
2023/03/22 08:21:24;;;;;;;1.67;1.57;;;21.10;65.10;;;;;;925459;150;27466;-80
2023/03/22 08:23:50;;;;;;;3.35;2.20;;;21.00;65.10;;;;;;919729;152;27329;-80
2023/03/22 08:26:17;;;;;;;3.98;1.85;;;20.90;65.10;;;;;;907112;153;27418;-81
2023/03/22 08:28:43;;;;;;;2.45;1.70;;;20.70;64.80;;;;;;903821;155;27872;-81
2023/03/22 08:31:10;;;;;;;2.22;1.45;;;20.60;65.30;;;;;;902431;153;27419;-79
2023/03/22 08:33:37;;;;;;;3.27;1.37;;;20.50;66.00;;;;;;918798;152;27354;-81
2023/03/22 08:36:03;;;;;;;2.12;1.40;;;20.40;66.10;;;;;;903205;155;27341;-79
2023/03/22 08:38:30;;;;;;;1.82;1.65;;;20.40;66.10;;;;;;903814;154;27866;-81
2023/03/22 08:40:56;;;;;;;1.98;1.57;;;20.30;66.00;;;;;;918728;151;27489;-78
2023/03/22 08:43:23;;;;;;;1.40;1.30;;;20.30;66.50;;;;;;912068;154;27381;-81
2023/03/22 08:45:49;;;;;;;2.33;1.52;;;20.20;65.80;;;;;;903902;155;27326;-80
2023/03/22 08:48:16;;;;;;;1.20;1.10;;;20.20;65.80;;;;;;919416;152;27404;-81
2023/03/22 08:50:43;;;;;;;1.80;1.40;;;20.10;65.80;;;;;;924354;150;27432;-80
2023/03/22 08:53:10;;;;;;;1.30;1.20;;;20.00;65.70;;;;;;909230;153;27359;-81
2023/03/22 08:55:36;;;;;;;1.42;1.10;;;19.90;65.40;;;;;;928897;150;27375;-80
2023/03/22 08:58:03;;;;;;;3.15;1.57;;;19.90;65.50;;;;;;945658;148;27364;-80
2023/03/22 09:00:29;;;;;;;2.33;1.35;;;19.80;65.30;;;;;;943250;148;27380;-79
2023/03/22 09:02:56;;;;;;;1.40;1.30;;;19.70;64.10;;;;;;944279;148;27309;-80
2023/03/22 09:05:22;;;;;;;2.22;1.30;;;19.60;65.20;;;;;;944631;148;27415;-79
2023/03/22 09:07:52;;;;;;;1.87;1.20;;;19.60;65.30;;;;;;943791;148;27463;-79
2023/03/22 09:10:18;;;;;;;1.60;1.27;;;19.50;64.80;;;;;;945469;148;27380;-81
2023/03/22 09:12:45;;;;;;;2.17;1.77;;;19.40;65.00;;;;;;945002;148;27377;-79
2023/03/22 09:15:11;;;;;;;1.10;0.98;;;19.40;65.30;;;;;;944153;148;27358;-79
2023/03/22 09:17:38;;;;;;;1.07;0.93;;;19.40;65.50;;;;;;945316;148;27274;-80
2023/03/22 09:20:05;;;;;;;1.20;1.00;;;19.40;65.70;;;;;;945199;148;27322;-80
2023/03/22 09:22:31;;;;;;;3.40;2.17;;;19.40;65.80;;;;;;946013;148;27369;-79
2023/03/22 09:24:58;;;;;;;2.47;2.15;;;19.50;65.90;;;;;;943551;148;27321;-81
2023/03/22 09:27:25;;;;;;;2.05;1.50;;;19.50;66.10;;;;;;945940;148;27396;-80
2023/03/22 09:29:51;;;;;;;1.65;1.32;;;19.60;65.70;;;;;;944743;148;27419;-80
2023/03/22 09:32:18;;;;;;;1.70;1.10;;;19.70;64.80;;;;;;945981;148;27376;-81
2023/03/22 09:34:44;;;;;;;1.00;0.93;;;19.80;63.90;;;;;;943544;148;27779;-79
2023/03/22 09:37:11;;;;;;;6.35;2.27;;;19.90;64.60;;;;;;942957;147;27313;-80
2023/03/22 09:39:37;;;;;;;2.00;1.17;;;20.10;65.60;;;;;;945180;148;27320;-80
2023/03/22 09:42:04;;;;;;;2.12;1.75;;;20.40;65.50;;;;;;942253;148;27338;-79
2023/03/22 09:44:31;;;;;;;1.65;1.55;;;20.70;65.50;;;;;;944410;148;27381;-80
2023/03/22 09:46:58;;;;;;;2.20;1.62;;;21.10;65.80;;;;;;942969;148;27307;-81
2023/03/22 09:49:24;;;;;;;2.17;1.98;;;21.40;65.30;;;;;;945115;148;27323;-81
2023/03/22 09:51:51;;;;;;;1.52;1.20;;;21.80;64.80;;;;;;943516;148;27451;-82
2023/03/22 09:54:18;;;;;;;1.32;1.07;;;22.20;64.10;;;;;;937675;148;27437;-80
2023/03/22 09:56:43;;;;;;;1.37;1.10;;;22.50;62.50;;;;;;938831;148;27490;-80
2023/03/22 09:59:19;;;;;;;0.72;0.62;;;22.70;61.50;;;;;;940460;148;27347;-81
2023/03/22 10:01:55;;;;;;;1.20;1.10;;;22.90;61.20;;;;;;939951;148;27462;-80
2023/03/22 10:04:26;;;;;;;2.15;1.12;;;23.00;60.20;;;;;;941223;148;27858;-80
2023/03/22 10:07:00;;;;;;;1.65;1.10;;;23.00;60.00;;;;;;940002;148;27350;-80
2023/03/22 10:09:25;;;;;;;2.17;1.20;;;23.00;58.40;;;;;;940565;148;27382;-80
2023/03/22 10:11:59;;;;;;;2.50;1.05;;;23.00;58.50;;;;;;940383;148;27374;-81
2023/03/22 10:14:30;;;;;;;1.00;0.90;;;22.90;57.30;;;;;;928310;148;27384;-80
2023/03/22 10:16:56;;;;;;;0.68;0.60;;;22.80;57.50;;;;;;940983;148;27315;-80
2023/03/22 10:19:23;;;;;;;0.75;0.70;;;22.70;57.60;;;;;;942073;148;27452;-80
2023/03/22 10:21:49;;;;;;;0.85;0.85;;;22.60;57.00;;;;;;943371;148;27380;-80
2023/03/22 10:24:16;;;;;;;2.98;0.95;;;22.40;56.60;;;;;;939373;148;27442;-80
2023/03/22 10:26:42;;;;;;;1.05;0.93;;;22.30;57.60;;;;;;939718;148;27329;-80
2023/03/22 10:29:18;;;;;;;1.47;0.80;;;22.20;57.50;;;;;;942938;148;27415;-81
2023/03/22 10:31:45;;;;;;;1.22;0.72;;;22.10;57.80;;;;;;913829;154;27506;-81
2023/03/22 10:34:15;;;;;;;0.82;0.82;;;22.00;58.00;;;;;;941197;148;27479;-81
2023/03/22 10:36:41;;;;;;;0.93;0.93;;;21.90;58.00;;;;;;940027;148;27307;-81
2023/03/22 10:39:15;;;;;;;0.93;0.90;;;21.80;57.70;;;;;;940566;148;27395;-81
2023/03/22 10:41:39;;;;;;;0.85;0.80;;;21.70;57.50;;;;;;940446;148;27322;-79
2023/03/22 10:44:06;;;;;;;0.85;0.70;;;21.60;57.00;;;;;;943476;148;27302;-80
2023/03/22 10:46:35;;;;;;;1.52;0.98;;;21.50;58.20;;;;;;941039;148;27439;-80
2023/03/22 10:49:02;;;;;;;1.12;1.02;;;21.40;57.90;;;;;;942310;148;27360;-81
2023/03/22 10:51:40;;;;;;;0.85;0.72;;;21.30;58.20;;;;;;941537;148;27402;-81
2023/03/22 10:54:07;;;;;;;0.82;0.82;;;21.30;58.40;;;;;;942460;148;27277;-80
2023/03/22 10:56:33;;;;;;;0.68;0.62;;;21.30;58.50;;;;;;941611;148;27432;-81
2023/03/22 10:59:00;;;;;;;1.67;0.88;;;21.30;58.70;;;;;;941690;148;27363;-80
2023/03/22 11:01:30;;;;;;;0.80;0.80;;;21.30;58.60;;;;;;943027;148;27371;-80
2023/03/22 11:03:56;;;;;;;2.08;0.90;;;21.40;57.90;;;;;;942199;148;27458;-81
2023/03/22 11:06:23;;;;;;;0.80;0.70;;;21.40;57.40;;;;;;942187;148;27331;-81
2023/03/22 11:08:49;;;;;;;0.80;0.80;;;21.50;57.80;;;;;;943623;148;27460;-81
2023/03/22 11:11:28;;;;;;;0.93;0.88;;;21.50;57.50;;;;;;940706;148;27356;-81
2023/03/22 11:14:15;;;;;;;0.80;0.80;;;21.50;57.90;;;;;;942394;148;27356;-80
2023/03/22 11:16:56;;;;;;;0.65;0.65;;;21.60;57.90;;;;;;940169;148;27391;-80
2023/03/22 11:19:26;;;;;;;1.40;1.12;;;21.60;57.00;;;;;;943294;148;27274;-79
2023/03/22 11:21:53;;;;;;;1.32;1.15;;;21.60;57.80;;;;;;941751;148;27386;-80
2023/03/22 11:24:20;;;;;;;0.93;0.90;;;21.70;58.30;;;;;;940631;148;27343;-80
2023/03/22 11:26:46;;;;;;;0.80;0.80;;;21.70;58.10;;;;;;942101;148;27450;-80
2023/03/22 11:29:12;;;;;;;2.45;1.17;;;21.80;56.20;;;;;;942225;148;27288;-80
2023/03/22 11:31:54;;;;;;;1.37;1.07;;;21.80;56.90;;;;;;940254;148;27449;-79
2023/03/22 11:34:21;;;;;;;0.62;0.62;;;21.90;56.30;;;;;;941356;148;27397;-80
2023/03/22 11:36:53;;;;;;;0.72;0.60;;;21.90;56.10;;;;;;940705;148;27343;-75
2023/03/22 11:39:14;;;;;;;1.25;1.10;;;21.90;56.20;;;;;;942747;148;27926;-75
2023/03/22 11:41:41;;;;;;;1.12;1.00;;;21.80;56.40;;;;;;944392;148;27378;-76
2023/03/22 11:44:13;;;;;;;1.50;1.00;;;21.90;56.50;;;;;;939525;148;27374;-76
2023/03/22 11:46:40;;;;;;;0.98;0.90;;;21.90;56.70;;;;;;939834;148;27363;-75
2023/03/22 11:49:06;;;;;;;1.32;0.90;;;21.90;56.40;;;;;;939663;148;27365;-75
2023/03/22 11:51:38;;;;;;;1.37;1.00;;;22.00;56.20;;;;;;941946;148;27415;-76
2023/03/22 11:54:08;;;;;;;1.32;0.75;;;22.00;56.60;;;;;;945799;147;27408;-76
2023/03/22 11:56:35;;;;;;;2.55;1.00;;;22.00;55.90;;;;;;928068;150;27364;-76
2023/03/22 11:59:04;;;;;;;1.05;0.90;;;22.00;55.70;;;;;;916852;153;27369;-76
2023/03/22 12:01:34;;;;;;;2.27;1.60;;;22.00;56.00;;;;;;923320;151;27499;-77
2023/03/22 12:04:00;;;;;;;2.20;1.30;;;22.10;56.10;;;;;;913712;153;27407;-76
2023/03/22 12:06:27;;;;;;;1.15;1.00;;;22.00;55.80;;;;;;907379;154;27350;-76
2023/03/22 12:09:03;;;;;;;1.07;0.93;;;22.00;55.30;;;;;;906212;154;27423;-76
2023/03/22 12:11:29;;;;;;;1.35;1.15;;;22.00;55.30;;;;;;908143;153;27349;-75
2023/03/22 12:14:08;;;;;;;1.02;0.80;;;21.90;55.30;;;;;;922733;151;27384;-75
2023/03/22 12:16:45;;;;;;;1.40;1.07;;;21.90;54.40;;;;;;907275;153;27446;-75
2023/03/22 12:19:21;;;;;;;2.77;1.05;;;21.80;54.90;;;;;;927908;150;27448;-75
2023/03/22 12:21:48;;;;;;;2.12;1.60;;;21.80;54.60;;;;;;927527;150;27411;-75
2023/03/22 12:24:26;;;;;;;1.05;1.00;;;21.70;54.70;;;;;;927800;150;27404;-76
2023/03/22 12:26:53;;;;;;;0.72;0.72;;;21.70;55.10;;;;;;928370;150;27414;-75
2023/03/22 12:29:19;;;;;;;0.78;0.78;;;21.60;55.20;;;;;;928646;150;27336;-75
2023/03/22 12:31:58;;;;;;;0.88;0.85;;;21.60;54.80;;;;;;927583;150;27478;-75
2023/03/22 12:34:24;;;;;;;0.72;0.70;;;21.50;54.60;;;;;;927816;150;27470;-75
2023/03/22 12:36:51;;;;;;;0.70;0.70;;;21.50;55.10;;;;;;930455;150;27349;-75
2023/03/22 12:39:38;;;;;;;0.70;0.70;;;21.50;55.30;;;;;;926677;150;27376;-75
2023/03/22 12:42:11;;;;;;;1.65;1.10;;;21.40;55.00;;;;;;927462;150;27407;-75
2023/03/22 12:44:40;;;;;;;1.87;1.22;;;21.40;55.40;;;;;;928228;150;27284;-75
2023/03/22 12:47:24;;;;;;;0.55;0.55;;;21.40;55.00;;;;;;927641;150;27339;-76
2023/03/22 12:49:54;;;;;;;1.12;1.02;;;21.40;55.00;;;;;;929276;150;27553;-76
2023/03/22 12:52:26;;;;;;;0.55;0.55;;;21.40;54.90;;;;;;929865;149;27391;-76